sensor_id;sensor_type;location;lat;lon;timestamp;P1;durP1;ratioP1;P2;durP2;ratioP2
72761;SDS011;60886;55.034;73.150;2022-07-06T00:00:44;10.13;;;2.67;;
72761;SDS011;60886;55.034;73.150;2022-07-06T00:03:10;44.88;;;22.73;;
72761;SDS011;60886;55.034;73.150;2022-07-06T00:05:41;16.38;;;4.68;;
72761;SDS011;60886;55.034;73.150;2022-07-06T00:08:08;12.95;;;3.17;;
72761;SDS011;60886;55.034;73.150;2022-07-06T00:10:34;9.13;;;2.63;;
72761;SDS011;60886;55.034;73.150;2022-07-06T00:13:01;9.02;;;3.05;;
72761;SDS011;60886;55.034;73.150;2022-07-06T00:15:27;13.90;;;3.35;;
72761;SDS011;60886;55.034;73.150;2022-07-06T00:17:53;14.80;;;3.22;;
72761;SDS011;60886;55.034;73.150;2022-07-06T00:20:20;35.88;;;3.65;;
72761;SDS011;60886;55.034;73.150;2022-07-06T00:22:46;38.28;;;4.05;;
72761;SDS011;60886;55.034;73.150;2022-07-06T00:25:12;36.17;;;4.13;;
72761;SDS011;60886;55.034;73.150;2022-07-06T00:27:39;25.88;;;3.42;;
72761;SDS011;60886;55.034;73.150;2022-07-06T00:30:06;26.23;;;3.40;;
72761;SDS011;60886;55.034;73.150;2022-07-06T00:32:33;35.65;;;4.03;;
72761;SDS011;60886;55.034;73.150;2022-07-06T00:34:59;25.05;;;3.85;;
72761;SDS011;60886;55.034;73.150;2022-07-06T00:37:25;32.45;;;4.07;;
72761;SDS011;60886;55.034;73.150;2022-07-06T00:39:53;17.88;;;3.90;;
72761;SDS011;60886;55.034;73.150;2022-07-06T00:42:20;25.10;;;4.53;;
72761;SDS011;60886;55.034;73.150;2022-07-06T00:44:46;20.85;;;5.60;;
72761;SDS011;60886;55.034;73.150;2022-07-06T00:47:13;21.38;;;5.00;;
72761;SDS011;60886;55.034;73.150;2022-07-06T00:49:39;22.98;;;5.03;;
72761;SDS011;60886;55.034;73.150;2022-07-06T00:52:28;15.98;;;4.63;;
72761;SDS011;60886;55.034;73.150;2022-07-06T00:54:54;23.40;;;4.60;;
72761;SDS011;60886;55.034;73.150;2022-07-06T00:57:21;28.80;;;4.97;;
72761;SDS011;60886;55.034;73.150;2022-07-06T00:59:47;15.60;;;5.10;;
72761;SDS011;60886;55.034;73.150;2022-07-06T01:02:14;14.15;;;4.75;;
72761;SDS011;60886;55.034;73.150;2022-07-06T01:04:40;15.85;;;5.22;;
72761;SDS011;60886;55.034;73.150;2022-07-06T01:07:07;14.90;;;5.15;;
72761;SDS011;60886;55.034;73.150;2022-07-06T01:09:33;18.23;;;5.25;;
72761;SDS011;60886;55.034;73.150;2022-07-06T01:12:02;19.02;;;5.95;;
72761;SDS011;60886;55.034;73.150;2022-07-06T01:14:32;26.13;;;6.43;;
72761;SDS011;60886;55.034;73.150;2022-07-06T01:16:59;21.00;;;5.63;;
72761;SDS011;60886;55.034;73.150;2022-07-06T01:19:25;24.55;;;6.63;;
72761;SDS011;60886;55.034;73.150;2022-07-06T01:21:52;30.20;;;7.82;;
72761;SDS011;60886;55.034;73.150;2022-07-06T01:24:18;31.15;;;7.82;;
72761;SDS011;60886;55.034;73.150;2022-07-06T01:26:45;25.88;;;6.75;;
72761;SDS011;60886;55.034;73.150;2022-07-06T01:29:16;35.40;;;9.50;;
72761;SDS011;60886;55.034;73.150;2022-07-06T01:31:46;34.78;;;9.02;;
72761;SDS011;60886;55.034;73.150;2022-07-06T01:34:19;43.63;;;10.88;;
72761;SDS011;60886;55.034;73.150;2022-07-06T01:36:49;58.72;;;12.90;;
72761;SDS011;60886;55.034;73.150;2022-07-06T01:39:23;61.10;;;14.68;;
72761;SDS011;60886;55.034;73.150;2022-07-06T01:41:49;58.28;;;13.73;;
72761;SDS011;60886;55.034;73.150;2022-07-06T01:44:20;45.95;;;11.98;;
72761;SDS011;60886;55.034;73.150;2022-07-06T01:46:46;55.83;;;13.77;;
72761;SDS011;60886;55.034;73.150;2022-07-06T01:49:18;51.20;;;13.05;;
72761;SDS011;60886;55.034;73.150;2022-07-06T01:51:45;63.83;;;14.60;;
72761;SDS011;60886;55.034;73.150;2022-07-06T01:54:11;48.83;;;12.82;;
72761;SDS011;60886;55.034;73.150;2022-07-06T01:56:39;55.60;;;14.05;;
72761;SDS011;60886;55.034;73.150;2022-07-06T01:59:06;57.28;;;14.45;;
72761;SDS011;60886;55.034;73.150;2022-07-06T02:01:42;54.10;;;14.43;;
72761;SDS011;60886;55.034;73.150;2022-07-06T02:04:08;55.60;;;13.75;;
72761;SDS011;60886;55.034;73.150;2022-07-06T02:06:35;50.80;;;14.65;;
72761;SDS011;60886;55.034;73.150;2022-07-06T02:09:01;46.70;;;13.30;;
72761;SDS011;60886;55.034;73.150;2022-07-06T02:11:28;43.00;;;13.15;;
72761;SDS011;60886;55.034;73.150;2022-07-06T02:13:54;42.47;;;12.77;;
72761;SDS011;60886;55.034;73.150;2022-07-06T02:16:24;38.40;;;11.77;;
72761;SDS011;60886;55.034;73.150;2022-07-06T02:18:59;36.53;;;11.48;;
72761;SDS011;60886;55.034;73.150;2022-07-06T02:21:28;38.50;;;12.40;;
72761;SDS011;60886;55.034;73.150;2022-07-06T02:23:54;31.42;;;11.32;;
72761;SDS011;60886;55.034;73.150;2022-07-06T02:26:21;27.70;;;11.07;;
72761;SDS011;60886;55.034;73.150;2022-07-06T02:28:49;32.53;;;11.02;;
72761;SDS011;60886;55.034;73.150;2022-07-06T02:31:15;27.23;;;10.63;;
72761;SDS011;60886;55.034;73.150;2022-07-06T02:33:44;27.38;;;10.52;;
72761;SDS011;60886;55.034;73.150;2022-07-06T02:36:13;26.50;;;9.88;;
72761;SDS011;60886;55.034;73.150;2022-07-06T02:38:49;23.70;;;9.57;;
72761;SDS011;60886;55.034;73.150;2022-07-06T02:41:16;21.40;;;9.25;;
72761;SDS011;60886;55.034;73.150;2022-07-06T02:43:44;20.05;;;9.27;;
72761;SDS011;60886;55.034;73.150;2022-07-06T02:46:10;20.05;;;9.32;;
72761;SDS011;60886;55.034;73.150;2022-07-06T02:48:37;19.08;;;8.63;;
72761;SDS011;60886;55.034;73.150;2022-07-06T02:51:04;19.23;;;8.98;;
72761;SDS011;60886;55.034;73.150;2022-07-06T02:53:31;19.90;;;9.43;;
72761;SDS011;60886;55.034;73.150;2022-07-06T02:55:57;21.35;;;9.13;;
72761;SDS011;60886;55.034;73.150;2022-07-06T02:58:24;18.77;;;8.82;;
72761;SDS011;60886;55.034;73.150;2022-07-06T03:00:51;18.38;;;8.60;;
72761;SDS011;60886;55.034;73.150;2022-07-06T03:03:28;19.65;;;8.90;;
72761;SDS011;60886;55.034;73.150;2022-07-06T03:05:55;19.42;;;8.73;;
72761;SDS011;60886;55.034;73.150;2022-07-06T03:08:23;18.10;;;7.97;;
72761;SDS011;60886;55.034;73.150;2022-07-06T03:10:49;17.63;;;8.63;;
72761;SDS011;60886;55.034;73.150;2022-07-06T03:13:16;20.48;;;9.10;;
72761;SDS011;60886;55.034;73.150;2022-07-06T03:15:44;29.40;;;10.70;;
72761;SDS011;60886;55.034;73.150;2022-07-06T03:18:10;26.25;;;11.13;;
72761;SDS011;60886;55.034;73.150;2022-07-06T03:20:37;29.90;;;10.18;;
72761;SDS011;60886;55.034;73.150;2022-07-06T03:23:05;22.95;;;9.80;;
72761;SDS011;60886;55.034;73.150;2022-07-06T03:25:32;24.92;;;10.15;;
72761;SDS011;60886;55.034;73.150;2022-07-06T03:27:58;23.45;;;10.50;;
72761;SDS011;60886;55.034;73.150;2022-07-06T03:30:25;23.58;;;10.30;;
72761;SDS011;60886;55.034;73.150;2022-07-06T03:32:54;24.90;;;10.15;;
72761;SDS011;60886;55.034;73.150;2022-07-06T03:35:22;23.88;;;11.00;;
72761;SDS011;60886;55.034;73.150;2022-07-06T03:38:00;21.08;;;9.52;;
72761;SDS011;60886;55.034;73.150;2022-07-06T03:40:29;23.13;;;10.55;;
72761;SDS011;60886;55.034;73.150;2022-07-06T03:42:56;21.60;;;10.30;;
72761;SDS011;60886;55.034;73.150;2022-07-06T03:45:24;23.60;;;10.25;;
72761;SDS011;60886;55.034;73.150;2022-07-06T03:47:51;20.80;;;10.20;;
72761;SDS011;60886;55.034;73.150;2022-07-06T03:50:18;23.70;;;10.48;;
72761;SDS011;60886;55.034;73.150;2022-07-06T03:52:45;20.38;;;9.95;;
72761;SDS011;60886;55.034;73.150;2022-07-06T03:55:11;20.63;;;9.85;;
72761;SDS011;60886;55.034;73.150;2022-07-06T03:57:41;19.83;;;9.32;;
72761;SDS011;60886;55.034;73.150;2022-07-06T04:00:12;23.40;;;11.00;;
72761;SDS011;60886;55.034;73.150;2022-07-06T04:02:45;19.23;;;10.05;;
72761;SDS011;60886;55.034;73.150;2022-07-06T04:05:18;23.00;;;10.65;;
72761;SDS011;60886;55.034;73.150;2022-07-06T04:07:47;19.20;;;9.40;;
72761;SDS011;60886;55.034;73.150;2022-07-06T04:10:14;20.67;;;10.98;;
72761;SDS011;60886;55.034;73.150;2022-07-06T04:12:42;18.88;;;9.57;;
72761;SDS011;60886;55.034;73.150;2022-07-06T04:15:10;19.27;;;10.75;;
72761;SDS011;60886;55.034;73.150;2022-07-06T04:17:38;20.85;;;11.73;;
72761;SDS011;60886;55.034;73.150;2022-07-06T04:20:36;17.70;;;9.80;;
72761;SDS011;60886;55.034;73.150;2022-07-06T04:23:02;17.10;;;10.23;;
72761;SDS011;60886;55.034;73.150;2022-07-06T04:25:29;24.65;;;15.43;;
72761;SDS011;60886;55.034;73.150;2022-07-06T04:28:04;22.35;;;13.45;;
72761;SDS011;60886;55.034;73.150;2022-07-06T04:30:32;20.73;;;12.10;;
72761;SDS011;60886;55.034;73.150;2022-07-06T04:33:00;20.63;;;11.35;;
72761;SDS011;60886;55.034;73.150;2022-07-06T04:35:29;20.95;;;11.88;;
72761;SDS011;60886;55.034;73.150;2022-07-06T04:37:56;21.95;;;11.27;;
72761;SDS011;60886;55.034;73.150;2022-07-06T04:40:22;22.45;;;12.63;;
72761;SDS011;60886;55.034;73.150;2022-07-06T04:42:52;22.52;;;12.85;;
72761;SDS011;60886;55.034;73.150;2022-07-06T04:45:20;23.38;;;12.88;;
72761;SDS011;60886;55.034;73.150;2022-07-06T04:47:46;22.55;;;12.77;;
72761;SDS011;60886;55.034;73.150;2022-07-06T04:50:14;25.13;;;13.70;;
72761;SDS011;60886;55.034;73.150;2022-07-06T04:52:42;25.02;;;13.88;;
72761;SDS011;60886;55.034;73.150;2022-07-06T04:55:09;23.52;;;13.23;;
72761;SDS011;60886;55.034;73.150;2022-07-06T04:57:36;25.13;;;13.85;;
72761;SDS011;60886;55.034;73.150;2022-07-06T05:00:04;26.42;;;13.70;;
72761;SDS011;60886;55.034;73.150;2022-07-06T05:02:31;27.48;;;14.38;;
72761;SDS011;60886;55.034;73.150;2022-07-06T05:04:58;28.35;;;14.82;;
72761;SDS011;60886;55.034;73.150;2022-07-06T05:07:25;28.02;;;15.27;;
72761;SDS011;60886;55.034;73.150;2022-07-06T05:09:55;26.02;;;14.43;;
72761;SDS011;60886;55.034;73.150;2022-07-06T05:12:22;28.25;;;15.35;;
72761;SDS011;60886;55.034;73.150;2022-07-06T05:14:49;27.17;;;15.00;;
72761;SDS011;60886;55.034;73.150;2022-07-06T05:17:15;29.17;;;16.27;;
72761;SDS011;60886;55.034;73.150;2022-07-06T05:19:42;27.48;;;16.20;;
72761;SDS011;60886;55.034;73.150;2022-07-06T05:22:08;24.67;;;15.07;;
72761;SDS011;60886;55.034;73.150;2022-07-06T05:24:35;25.27;;;15.43;;
72761;SDS011;60886;55.034;73.150;2022-07-06T05:27:02;27.00;;;16.30;;
72761;SDS011;60886;55.034;73.150;2022-07-06T05:29:30;26.58;;;16.33;;
72761;SDS011;60886;55.034;73.150;2022-07-06T05:31:56;28.35;;;17.45;;
72761;SDS011;60886;55.034;73.150;2022-07-06T05:34:23;25.70;;;15.85;;
72761;SDS011;60886;55.034;73.150;2022-07-06T05:36:49;28.30;;;17.63;;
72761;SDS011;60886;55.034;73.150;2022-07-06T05:39:16;28.60;;;17.83;;
72761;SDS011;60886;55.034;73.150;2022-07-06T05:41:48;29.48;;;18.25;;
72761;SDS011;60886;55.034;73.150;2022-07-06T05:44:20;27.10;;;16.35;;
72761;SDS011;60886;55.034;73.150;2022-07-06T05:46:48;26.95;;;17.80;;
72761;SDS011;60886;55.034;73.150;2022-07-06T05:49:14;28.48;;;16.95;;
72761;SDS011;60886;55.034;73.150;2022-07-06T05:51:59;28.00;;;17.30;;
72761;SDS011;60886;55.034;73.150;2022-07-06T05:54:26;28.88;;;17.30;;
72761;SDS011;60886;55.034;73.150;2022-07-06T05:56:53;28.33;;;17.73;;
72761;SDS011;60886;55.034;73.150;2022-07-06T05:59:21;28.25;;;16.08;;
72761;SDS011;60886;55.034;73.150;2022-07-06T06:01:48;32.67;;;18.67;;
72761;SDS011;60886;55.034;73.150;2022-07-06T06:04:21;37.45;;;16.48;;
72761;SDS011;60886;55.034;73.150;2022-07-06T06:06:48;28.65;;;15.50;;
72761;SDS011;60886;55.034;73.150;2022-07-06T06:09:15;33.42;;;15.93;;
72761;SDS011;60886;55.034;73.150;2022-07-06T06:11:41;40.42;;;17.88;;
72761;SDS011;60886;55.034;73.150;2022-07-06T06:14:08;45.85;;;17.77;;
72761;SDS011;60886;55.034;73.150;2022-07-06T06:16:35;42.35;;;17.00;;
72761;SDS011;60886;55.034;73.150;2022-07-06T06:19:02;38.15;;;18.30;;
72761;SDS011;60886;55.034;73.150;2022-07-06T06:21:29;37.08;;;16.85;;
72761;SDS011;60886;55.034;73.150;2022-07-06T06:23:55;35.53;;;17.58;;
72761;SDS011;60886;55.034;73.150;2022-07-06T06:26:21;38.50;;;18.38;;
72761;SDS011;60886;55.034;73.150;2022-07-06T06:28:48;42.65;;;18.95;;
72761;SDS011;60886;55.034;73.150;2022-07-06T06:31:15;42.72;;;18.73;;
72761;SDS011;60886;55.034;73.150;2022-07-06T06:33:41;39.75;;;16.63;;
72761;SDS011;60886;55.034;73.150;2022-07-06T06:36:08;40.72;;;18.85;;
72761;SDS011;60886;55.034;73.150;2022-07-06T06:38:35;43.75;;;16.15;;
72761;SDS011;60886;55.034;73.150;2022-07-06T06:41:01;37.83;;;16.17;;
72761;SDS011;60886;55.034;73.150;2022-07-06T06:43:28;37.50;;;16.27;;
72761;SDS011;60886;55.034;73.150;2022-07-06T06:46:12;31.90;;;13.25;;
72761;SDS011;60886;55.034;73.150;2022-07-06T06:48:38;19.30;;;10.07;;
72761;SDS011;60886;55.034;73.150;2022-07-06T06:51:05;20.02;;;10.48;;
72761;SDS011;60886;55.034;73.150;2022-07-06T06:53:31;19.88;;;10.23;;
72761;SDS011;60886;55.034;73.150;2022-07-06T06:55:57;17.00;;;8.52;;
72761;SDS011;60886;55.034;73.150;2022-07-06T06:58:24;12.70;;;7.60;;
72761;SDS011;60886;55.034;73.150;2022-07-06T07:00:50;11.48;;;6.95;;
72761;SDS011;60886;55.034;73.150;2022-07-06T07:03:17;11.15;;;6.70;;
72761;SDS011;60886;55.034;73.150;2022-07-06T07:05:43;16.00;;;8.07;;
72761;SDS011;60886;55.034;73.150;2022-07-06T07:08:10;15.30;;;7.97;;
72761;SDS011;60886;55.034;73.150;2022-07-06T07:10:36;13.82;;;7.75;;
72761;SDS011;60886;55.034;73.150;2022-07-06T07:13:02;16.55;;;8.90;;
72761;SDS011;60886;55.034;73.150;2022-07-06T07:15:29;12.32;;;8.05;;
72761;SDS011;60886;55.034;73.150;2022-07-06T07:17:55;14.93;;;9.68;;
72761;SDS011;60886;55.034;73.150;2022-07-06T07:20:22;15.05;;;8.90;;
72761;SDS011;60886;55.034;73.150;2022-07-06T07:22:49;16.13;;;8.63;;
72761;SDS011;60886;55.034;73.150;2022-07-06T07:25:16;15.82;;;9.93;;
72761;SDS011;60886;55.034;73.150;2022-07-06T07:27:43;16.88;;;11.57;;
72761;SDS011;60886;55.034;73.150;2022-07-06T07:30:09;18.60;;;10.73;;
72761;SDS011;60886;55.034;73.150;2022-07-06T07:32:41;17.48;;;10.88;;
72761;SDS011;60886;55.034;73.150;2022-07-06T07:35:16;18.48;;;10.85;;
72761;SDS011;60886;55.034;73.150;2022-07-06T07:37:43;14.65;;;9.13;;
72761;SDS011;60886;55.034;73.150;2022-07-06T07:40:09;16.77;;;10.95;;
72761;SDS011;60886;55.034;73.150;2022-07-06T07:42:35;17.25;;;10.95;;
72761;SDS011;60886;55.034;73.150;2022-07-06T07:45:06;23.83;;;13.15;;
72761;SDS011;60886;55.034;73.150;2022-07-06T07:47:34;20.83;;;12.60;;
72761;SDS011;60886;55.034;73.150;2022-07-06T07:50:00;18.13;;;12.43;;
72761;SDS011;60886;55.034;73.150;2022-07-06T07:52:27;13.63;;;8.40;;
72761;SDS011;60886;55.034;73.150;2022-07-06T07:54:53;15.15;;;9.30;;
72761;SDS011;60886;55.034;73.150;2022-07-06T07:57:19;13.75;;;9.30;;
72761;SDS011;60886;55.034;73.150;2022-07-06T07:59:46;15.10;;;9.32;;
72761;SDS011;60886;55.034;73.150;2022-07-06T08:02:12;14.73;;;8.75;;
72761;SDS011;60886;55.034;73.150;2022-07-06T08:04:42;13.07;;;9.02;;
72761;SDS011;60886;55.034;73.150;2022-07-06T08:07:08;17.05;;;9.07;;
72761;SDS011;60886;55.034;73.150;2022-07-06T08:09:34;17.77;;;10.98;;
72761;SDS011;60886;55.034;73.150;2022-07-06T08:12:01;15.20;;;10.90;;
72761;SDS011;60886;55.034;73.150;2022-07-06T08:14:27;19.92;;;11.80;;
72761;SDS011;60886;55.034;73.150;2022-07-06T08:16:54;16.20;;;11.50;;
72761;SDS011;60886;55.034;73.150;2022-07-06T08:19:21;19.15;;;11.00;;
72761;SDS011;60886;55.034;73.150;2022-07-06T08:21:50;17.67;;;10.80;;
72761;SDS011;60886;55.034;73.150;2022-07-06T08:24:16;15.15;;;10.18;;
72761;SDS011;60886;55.034;73.150;2022-07-06T08:26:43;16.73;;;10.63;;
72761;SDS011;60886;55.034;73.150;2022-07-06T08:29:10;17.25;;;10.68;;
72761;SDS011;60886;55.034;73.150;2022-07-06T08:31:41;16.05;;;10.00;;
72761;SDS011;60886;55.034;73.150;2022-07-06T08:34:08;16.63;;;10.05;;
72761;SDS011;60886;55.034;73.150;2022-07-06T08:36:35;16.08;;;9.73;;
72761;SDS011;60886;55.034;73.150;2022-07-06T08:39:01;21.90;;;11.63;;
72761;SDS011;60886;55.034;73.150;2022-07-06T08:41:28;20.08;;;12.00;;
72761;SDS011;60886;55.034;73.150;2022-07-06T08:44:00;20.73;;;11.88;;
72761;SDS011;60886;55.034;73.150;2022-07-06T08:46:28;22.20;;;11.25;;
72761;SDS011;60886;55.034;73.150;2022-07-06T08:48:56;23.48;;;12.63;;
72761;SDS011;60886;55.034;73.150;2022-07-06T08:51:24;23.17;;;11.77;;
72761;SDS011;60886;55.034;73.150;2022-07-06T08:53:50;21.65;;;12.27;;
72761;SDS011;60886;55.034;73.150;2022-07-06T08:56:17;23.30;;;11.88;;
72761;SDS011;60886;55.034;73.150;2022-07-06T08:58:44;21.98;;;11.13;;
72761;SDS011;60886;55.034;73.150;2022-07-06T09:01:11;20.65;;;11.98;;
72761;SDS011;60886;55.034;73.150;2022-07-06T09:03:41;24.40;;;12.90;;
72761;SDS011;60886;55.034;73.150;2022-07-06T09:06:09;24.13;;;11.88;;
72761;SDS011;60886;55.034;73.150;2022-07-06T09:08:36;19.60;;;10.50;;
72761;SDS011;60886;55.034;73.150;2022-07-06T09:11:03;19.70;;;11.80;;
72761;SDS011;60886;55.034;73.150;2022-07-06T09:13:39;19.70;;;11.27;;
72761;SDS011;60886;55.034;73.150;2022-07-06T09:16:11;22.90;;;11.50;;
72761;SDS011;60886;55.034;73.150;2022-07-06T09:18:39;22.38;;;12.52;;
72761;SDS011;60886;55.034;73.150;2022-07-06T09:21:09;21.17;;;11.93;;
72761;SDS011;60886;55.034;73.150;2022-07-06T09:23:36;21.13;;;11.82;;
72761;SDS011;60886;55.034;73.150;2022-07-06T09:26:14;20.73;;;12.23;;
72761;SDS011;60886;55.034;73.150;2022-07-06T09:28:44;22.10;;;12.05;;
72761;SDS011;60886;55.034;73.150;2022-07-06T09:31:11;20.42;;;11.52;;
72761;SDS011;60886;55.034;73.150;2022-07-06T09:33:38;21.17;;;11.90;;
72761;SDS011;60886;55.034;73.150;2022-07-06T09:36:10;17.17;;;11.05;;
72761;SDS011;60886;55.034;73.150;2022-07-06T09:38:36;19.15;;;11.88;;
72761;SDS011;60886;55.034;73.150;2022-07-06T09:41:02;19.10;;;11.95;;
72761;SDS011;60886;55.034;73.150;2022-07-06T09:43:29;22.02;;;11.55;;
72761;SDS011;60886;55.034;73.150;2022-07-06T09:45:56;21.25;;;11.68;;
72761;SDS011;60886;55.034;73.150;2022-07-06T09:48:24;18.35;;;11.50;;
72761;SDS011;60886;55.034;73.150;2022-07-06T09:50:53;18.95;;;11.68;;
72761;SDS011;60886;55.034;73.150;2022-07-06T09:53:20;18.10;;;11.40;;
72761;SDS011;60886;55.034;73.150;2022-07-06T09:55:57;18.08;;;11.20;;
72761;SDS011;60886;55.034;73.150;2022-07-06T09:58:24;16.77;;;10.93;;
72761;SDS011;60886;55.034;73.150;2022-07-06T10:00:50;16.83;;;10.93;;
72761;SDS011;60886;55.034;73.150;2022-07-06T10:03:17;15.48;;;9.55;;
72761;SDS011;60886;55.034;73.150;2022-07-06T10:05:50;16.90;;;10.15;;
72761;SDS011;60886;55.034;73.150;2022-07-06T10:08:37;17.35;;;10.32;;
72761;SDS011;60886;55.034;73.150;2022-07-06T10:11:04;18.80;;;10.30;;
72761;SDS011;60886;55.034;73.150;2022-07-06T10:13:32;16.63;;;10.45;;
72761;SDS011;60886;55.034;73.150;2022-07-06T10:16:01;16.98;;;9.38;;
72761;SDS011;60886;55.034;73.150;2022-07-06T10:18:28;14.80;;;9.45;;
72761;SDS011;60886;55.034;73.150;2022-07-06T10:20:54;14.15;;;9.27;;
72761;SDS011;60886;55.034;73.150;2022-07-06T10:23:21;13.88;;;8.90;;
72761;SDS011;60886;55.034;73.150;2022-07-06T10:25:55;13.65;;;8.77;;
72761;SDS011;60886;55.034;73.150;2022-07-06T10:28:23;15.32;;;9.25;;
72761;SDS011;60886;55.034;73.150;2022-07-06T10:30:50;16.85;;;9.63;;
72761;SDS011;60886;55.034;73.150;2022-07-06T10:33:16;13.50;;;8.75;;
72761;SDS011;60886;55.034;73.150;2022-07-06T10:35:45;12.85;;;7.97;;
72761;SDS011;60886;55.034;73.150;2022-07-06T10:38:12;13.85;;;8.70;;
72761;SDS011;60886;55.034;73.150;2022-07-06T10:40:46;14.27;;;8.57;;
72761;SDS011;60886;55.034;73.150;2022-07-06T10:43:41;12.77;;;7.95;;
72761;SDS011;60886;55.034;73.150;2022-07-06T10:46:11;14.80;;;8.38;;
72761;SDS011;60886;55.034;73.150;2022-07-06T10:48:40;12.95;;;8.75;;
72761;SDS011;60886;55.034;73.150;2022-07-06T10:51:08;13.93;;;9.10;;
72761;SDS011;60886;55.034;73.150;2022-07-06T10:53:39;16.05;;;9.18;;
72761;SDS011;60886;55.034;73.150;2022-07-06T10:56:10;12.50;;;8.32;;
72761;SDS011;60886;55.034;73.150;2022-07-06T10:58:38;15.98;;;8.82;;
72761;SDS011;60886;55.034;73.150;2022-07-06T11:01:09;15.25;;;9.23;;
72761;SDS011;60886;55.034;73.150;2022-07-06T11:16:33;12.48;;;8.15;;
72761;SDS011;60886;55.034;73.150;2022-07-06T11:19:07;16.13;;;9.00;;
72761;SDS011;60886;55.034;73.150;2022-07-06T11:24:04;14.23;;;8.43;;
72761;SDS011;60886;55.034;73.150;2022-07-06T11:26:39;14.20;;;8.57;;
72761;SDS011;60886;55.034;73.150;2022-07-06T11:29:08;13.32;;;8.02;;
72761;SDS011;60886;55.034;73.150;2022-07-06T11:31:38;13.35;;;9.20;;
72761;SDS011;60886;55.034;73.150;2022-07-06T11:34:12;12.68;;;8.07;;
72761;SDS011;60886;55.034;73.150;2022-07-06T11:36:43;14.05;;;8.48;;
72761;SDS011;60886;55.034;73.150;2022-07-06T11:39:10;13.43;;;8.60;;
72761;SDS011;60886;55.034;73.150;2022-07-06T11:41:36;14.43;;;8.60;;
72761;SDS011;60886;55.034;73.150;2022-07-06T11:44:03;14.88;;;9.18;;
72761;SDS011;60886;55.034;73.150;2022-07-06T11:46:30;14.30;;;9.18;;
72761;SDS011;60886;55.034;73.150;2022-07-06T11:48:58;14.25;;;9.30;;
72761;SDS011;60886;55.034;73.150;2022-07-06T11:51:30;13.77;;;8.85;;
72761;SDS011;60886;55.034;73.150;2022-07-06T11:54:16;15.38;;;9.40;;
72761;SDS011;60886;55.034;73.150;2022-07-06T11:59:24;15.10;;;9.68;;
72761;SDS011;60886;55.034;73.150;2022-07-06T12:04:33;14.45;;;9.30;;
72761;SDS011;60886;55.034;73.150;2022-07-06T12:07:01;14.30;;;9.40;;
72761;SDS011;60886;55.034;73.150;2022-07-06T12:09:30;15.13;;;9.93;;
72761;SDS011;60886;55.034;73.150;2022-07-06T12:11:58;16.25;;;10.00;;
72761;SDS011;60886;55.034;73.150;2022-07-06T12:14:28;17.90;;;9.90;;
72761;SDS011;60886;55.034;73.150;2022-07-06T12:16:56;15.73;;;9.10;;
72761;SDS011;60886;55.034;73.150;2022-07-06T12:19:29;18.60;;;8.60;;
72761;SDS011;60886;55.034;73.150;2022-07-06T12:22:00;13.00;;;7.70;;
72761;SDS011;60886;55.034;73.150;2022-07-06T12:24:29;13.93;;;7.85;;
72761;SDS011;60886;55.034;73.150;2022-07-06T12:26:57;12.70;;;7.60;;
72761;SDS011;60886;55.034;73.150;2022-07-06T12:29:24;17.98;;;9.45;;
72761;SDS011;60886;55.034;73.150;2022-07-06T12:31:52;15.88;;;9.00;;
72761;SDS011;60886;55.034;73.150;2022-07-06T12:34:24;14.55;;;8.60;;
72761;SDS011;60886;55.034;73.150;2022-07-06T12:39:20;13.38;;;8.15;;
72761;SDS011;60886;55.034;73.150;2022-07-06T12:41:49;15.13;;;7.93;;
72761;SDS011;60886;55.034;73.150;2022-07-06T12:44:20;12.65;;;8.30;;
72761;SDS011;60886;55.034;73.150;2022-07-06T12:47:01;13.18;;;8.40;;
72761;SDS011;60886;55.034;73.150;2022-07-06T12:49:35;14.35;;;8.63;;
72761;SDS011;60886;55.034;73.150;2022-07-06T12:54:34;12.73;;;7.78;;
72761;SDS011;60886;55.034;73.150;2022-07-06T12:57:08;12.48;;;7.18;;
72761;SDS011;60886;55.034;73.150;2022-07-06T12:59:46;12.65;;;6.95;;
72761;SDS011;60886;55.034;73.150;2022-07-06T13:02:21;11.30;;;6.22;;
72761;SDS011;60886;55.034;73.150;2022-07-06T13:07:25;11.70;;;6.60;;
72761;SDS011;60886;55.034;73.150;2022-07-06T13:09:53;10.50;;;5.93;;
72761;SDS011;60886;55.034;73.150;2022-07-06T13:12:21;12.07;;;6.22;;
72761;SDS011;60886;55.034;73.150;2022-07-06T13:14:48;11.98;;;6.25;;
72761;SDS011;60886;55.034;73.150;2022-07-06T13:17:15;12.43;;;6.00;;
72761;SDS011;60886;55.034;73.150;2022-07-06T13:19:41;12.10;;;6.55;;
72761;SDS011;60886;55.034;73.150;2022-07-06T13:22:08;10.57;;;6.00;;
72761;SDS011;60886;55.034;73.150;2022-07-06T13:24:35;11.02;;;5.60;;
72761;SDS011;60886;55.034;73.150;2022-07-06T13:27:01;11.43;;;6.18;;
72761;SDS011;60886;55.034;73.150;2022-07-06T13:29:38;11.13;;;5.53;;
72761;SDS011;60886;55.034;73.150;2022-07-06T13:32:05;10.35;;;5.10;;
72761;SDS011;60886;55.034;73.150;2022-07-06T13:34:32;9.40;;;5.15;;
72761;SDS011;60886;55.034;73.150;2022-07-06T13:37:01;11.73;;;5.65;;
72761;SDS011;60886;55.034;73.150;2022-07-06T13:39:28;11.20;;;5.30;;
72761;SDS011;60886;55.034;73.150;2022-07-06T13:41:55;11.93;;;5.50;;
72761;SDS011;60886;55.034;73.150;2022-07-06T13:44:21;11.57;;;5.50;;
72761;SDS011;60886;55.034;73.150;2022-07-06T13:46:49;9.23;;;5.25;;
72761;SDS011;60886;55.034;73.150;2022-07-06T13:49:15;8.85;;;4.97;;
72761;SDS011;60886;55.034;73.150;2022-07-06T13:51:42;9.57;;;4.88;;
72761;SDS011;60886;55.034;73.150;2022-07-06T13:54:09;12.20;;;5.25;;
72761;SDS011;60886;55.034;73.150;2022-07-06T13:56:36;10.93;;;5.38;;
72761;SDS011;60886;55.034;73.150;2022-07-06T13:59:04;10.27;;;5.00;;
72761;SDS011;60886;55.034;73.150;2022-07-06T14:01:32;9.15;;;4.90;;
72761;SDS011;60886;55.034;73.150;2022-07-06T14:04:11;9.18;;;5.10;;
72761;SDS011;60886;55.034;73.150;2022-07-06T14:06:38;12.38;;;4.82;;
72761;SDS011;60886;55.034;73.150;2022-07-06T14:09:08;9.68;;;5.05;;
72761;SDS011;60886;55.034;73.150;2022-07-06T14:11:34;9.98;;;4.75;;
72761;SDS011;60886;55.034;73.150;2022-07-06T14:14:01;9.48;;;4.40;;
72761;SDS011;60886;55.034;73.150;2022-07-06T14:16:27;8.95;;;4.57;;
72761;SDS011;60886;55.034;73.150;2022-07-06T14:18:54;8.85;;;4.68;;
72761;SDS011;60886;55.034;73.150;2022-07-06T14:21:20;9.18;;;4.53;;
72761;SDS011;60886;55.034;73.150;2022-07-06T14:23:47;9.05;;;4.00;;
72761;SDS011;60886;55.034;73.150;2022-07-06T14:26:14;9.57;;;4.93;;
72761;SDS011;60886;55.034;73.150;2022-07-06T14:28:40;10.15;;;4.13;;
72761;SDS011;60886;55.034;73.150;2022-07-06T14:31:07;10.55;;;4.30;;
72761;SDS011;60886;55.034;73.150;2022-07-06T14:33:33;8.70;;;4.43;;
72761;SDS011;60886;55.034;73.150;2022-07-06T14:35:59;9.25;;;4.40;;
72761;SDS011;60886;55.034;73.150;2022-07-06T14:38:26;8.50;;;4.90;;
72761;SDS011;60886;55.034;73.150;2022-07-06T14:40:53;10.02;;;4.75;;
72761;SDS011;60886;55.034;73.150;2022-07-06T14:43:20;9.85;;;4.78;;
72761;SDS011;60886;55.034;73.150;2022-07-06T14:45:46;9.30;;;4.95;;
72761;SDS011;60886;55.034;73.150;2022-07-06T14:48:13;8.82;;;4.70;;
72761;SDS011;60886;55.034;73.150;2022-07-06T14:50:40;15.43;;;8.02;;